Walled Lake, MI (48390)

5:15 PM EDT on September 01, 2015 (GMT -0400)
Lower Straits Lake | | Change Station
CLOSE
Current Station
Personal Weather Station
Location: Commerce Township, MI
Elevation: 938 ft
Nearby Weather Stations

Elev 938 ft 42.59 °N, 83.47 °W | Updated 3 minutes ago

Partly Cloudy
Partly Cloudy
89.4 °F
Feels Like 95 °F
N
0.0
Wind Variable Wind from SSE
Gusts 0.0 mph

Today
High -- | Low -- °F
--% Chance of Precip.
Yesterday
High -- | Low -- °F
Precip. -- in
6:58 AM 8:08 PM
Waning Gibbous, 86% visible
Pressure 30.02 in
Visibility 10.0 miles
Clouds Few 5000 ft
Scattered Clouds 26000 ft
Heat Index 95 °F
Dew Point 70 °F
Humidity 53%
Rainfall 0.00 in
Snow Depth Not available.
UV 3 out of 12
Pollen 10.60 out of 12
Air Quality Not available.
Flu Activity Not available.
METAR KPTK 012053Z 25006KT 10SM FEW050 SCT260 31/19 A3003 RMK AO2 SLP164 T03110189 56012
Pressure 30.02 in
Visibility 10.0 miles
Clouds Few 5000 ft
Scattered Clouds 26000 ft
Heat Index 95 °F
Dew Point 70 °F
Humidity 53%
Rainfall 0.00 in
Snow Depth Not available.
UV 3 out of 12
Pollen 10.60 out of 12
Air Quality Not available.
Flu Activity Not available.
METAR KPTK 012053Z 25006KT 10SM FEW050 SCT260 31/19 A3003 RMK AO2 SLP164 T03110189 56012

10-Day Weather Forecast

×

Almanac

Astronomy

Sep. 01, 2015 Rise Set
Actual Time
Civil Twilight
Nautical Twilight
Astronomical Twilight
Moon
Length of Visible Light
Length of Day
Tomorrow will be .
, % of the Moon is Illuminated

Today's Extremes

State Highs State Lows

Community

WunderPhotos

Upload Photos

1,851,617 photos uploaded!

WunderBlogs® & News

Nearby

Air Quality

  Air Quality AQ Index Pollutant
Not available.

Snow Depth

Station Depth Elevation

Earthquake Activity

City Distance Mag. Time & Date
Minimum magnitude displayed is 2.5.

Coastal Water Temperatures

Place Temperature

Stations

Nearby Weather Stations

Station Location Temp. Windchill Dew Point Humidity Wind Precip. Elev Updated Type